Time;durP1;ratioP1;P1;durP2;ratioP2;P2;SDS_P1;SDS_P2;PMS_P1;PMS_P2;Temp;Humidity;BMP_temperature;BMP_pressure;BME280_temperature;BME280_humidity;BME280_pressure;Samples;Min_cycle;Max_cycle;Signal;HPM_P1;HPM_P2
2021/07/29 00:02:04;;;;;;;5.40;2.05;;;;;;;;;;5052630;28;20409;-82
2021/07/29 00:04:30;;;;;;;2.95;2.58;;;;;;;;;;5052699;28;20067;-81
2021/07/29 00:06:57;;;;;;;5.70;2.70;;;;;;;;;;5052539;28;20107;-82
2021/07/29 00:09:24;;;;;;;7.05;2.65;;;;;;;;;;5052160;28;20493;-82
2021/07/29 00:11:50;;;;;;;2.33;1.85;;;;;;;;;;5052292;28;20432;-81
2021/07/29 00:14:17;;;;;;;5.85;3.38;;;;;;;;;;5052321;28;20072;-82
2021/07/29 00:16:45;;;;;;;9.35;3.50;;;;;;;;;;5052200;28;20515;-81
2021/07/29 00:19:12;;;;;;;10.20;3.53;;;;;;;;;;5052159;28;20496;-81
2021/07/29 00:21:39;;;;;;;4.40;2.00;;;;;;;;;;5052230;28;20132;-81
2021/07/29 00:24:06;;;;;;;7.43;2.55;;;;;;;;;;5052156;28;20049;-82
2021/07/29 00:26:33;;;;;;;4.82;3.33;;;;;;;;;;5051950;28;20052;-81
2021/07/29 00:29:00;;;;;;;8.07;2.60;;;;;;;;;;5052163;28;20049;-81
2021/07/29 00:31:30;;;;;;;5.72;3.97;;;;;;;;;;5052086;28;20086;-81
2021/07/29 00:33:56;;;;;;;4.82;3.35;;;;;;;;;;5051991;28;20049;-81
2021/07/29 00:36:24;;;;;;;5.30;2.25;;;;;;;;;;5051773;28;20098;-81
2021/07/29 00:38:51;;;;;;;7.43;2.78;;;;;;;;;;5051791;28;20044;-81
2021/07/29 00:41:17;;;;;;;4.22;2.63;;;;;;;;;;5051616;28;20405;-81
2021/07/29 00:43:45;;;;;;;10.50;3.60;;;;;;;;;;5051837;28;20060;-82
2021/07/29 00:46:13;;;;;;;6.78;3.83;;;;;;;;;;5051628;28;20052;-82
2021/07/29 00:48:40;;;;;;;3.13;1.65;;;;;;;;;;5051496;28;20072;-81
2021/07/29 00:51:07;;;;;;;3.85;2.50;;;;;;;;;;5051415;28;21785;-81
2021/07/29 00:53:35;;;;;;;7.82;2.72;;;;;;;;;;5051353;28;20044;-81
2021/07/29 00:56:01;;;;;;;4.22;2.65;;;;;;;;;;5051685;28;20048;-82
2021/07/29 00:58:28;;;;;;;4.38;1.92;;;;;;;;;;5051748;28;20072;-82
2021/07/29 01:00:54;;;;;;;3.58;1.67;;;;;;;;;;5051526;28;20049;-81
2021/07/29 01:03:21;;;;;;;4.30;2.78;;;;;;;;;;5051458;28;20463;-81
2021/07/29 01:05:47;;;;;;;3.97;3.10;;;;;;;;;;5051237;28;20052;-81
2021/07/29 01:08:14;;;;;;;5.32;2.75;;;;;;;;;;5051021;28;20103;-81
2021/07/29 01:10:42;;;;;;;4.90;3.25;;;;;;;;;;5050225;28;20500;-82
2021/07/29 01:13:08;;;;;;;4.18;3.38;;;;;;;;;;5051356;28;20045;-82
2021/07/29 01:15:35;;;;;;;6.07;2.47;;;;;;;;;;5051338;28;20060;-81
2021/07/29 01:18:01;;;;;;;3.90;2.05;;;;;;;;;;5051228;28;20045;-81
2021/07/29 01:20:29;;;;;;;6.07;2.33;;;;;;;;;;5050993;28;20049;-81
2021/07/29 01:22:56;;;;;;;3.65;2.00;;;;;;;;;;5050811;28;20405;-82
2021/07/29 01:25:23;;;;;;;5.13;2.35;;;;;;;;;;5050968;28;20049;-81
2021/07/29 01:27:49;;;;;;;5.07;3.10;;;;;;;;;;5051109;28;20048;-82
2021/07/29 01:30:16;;;;;;;8.30;2.60;;;;;;;;;;5050779;28;20497;-82
2021/07/29 01:32:42;;;;;;;6.70;2.15;;;;;;;;;;5050819;28;20045;-81
2021/07/29 01:35:09;;;;;;;17.70;3.90;;;;;;;;;;5050874;28;20060;-82
2021/07/29 01:37:38;;;;;;;5.32;3.08;;;;;;;;;;5050735;28;20056;-81
2021/07/29 01:40:06;;;;;;;5.57;3.50;;;;;;;;;;5050813;28;20044;-82
2021/07/29 01:42:33;;;;;;;4.47;2.75;;;;;;;;;;5032811;28;20099;-82
2021/07/29 01:44:59;;;;;;;6.75;2.72;;;;;;;;;;5050789;28;20045;-81
2021/07/29 01:47:25;;;;;;;4.55;2.25;;;;;;;;;;5050713;28;20052;-81
2021/07/29 01:49:53;;;;;;;3.67;1.70;;;;;;;;;;5050438;28;20056;-81
2021/07/29 01:52:20;;;;;;;5.13;2.80;;;;;;;;;;5050757;28;20056;-82
2021/07/29 01:54:48;;;;;;;13.40;4.05;;;;;;;;;;5050596;28;20048;-81
2021/07/29 01:57:14;;;;;;;4.25;2.33;;;;;;;;;;5050664;28;20104;-82
2021/07/29 01:59:41;;;;;;;3.38;1.77;;;;;;;;;;5050634;28;20095;-82
2021/07/29 02:02:07;;;;;;;7.20;2.05;;;;;;;;;;5050553;28;20566;-81
2021/07/29 02:04:34;;;;;;;2.20;1.60;;;;;;;;;;5050394;28;20045;-82
2021/07/29 02:07:01;;;;;;;5.00;2.08;;;;;;;;;;5050706;28;20053;-82
2021/07/29 02:09:27;;;;;;;2.50;1.77;;;;;;;;;;5050302;28;20485;-82
2021/07/29 02:11:55;;;;;;;3.45;2.03;;;;;;;;;;5050468;28;20049;-81
2021/07/29 02:14:23;;;;;;;8.55;3.55;;;;;;;;;;5050483;28;20107;-81
2021/07/29 02:16:50;;;;;;;3.17;2.58;;;;;;;;;;5050358;28;20136;-82
2021/07/29 02:19:16;;;;;;;5.72;2.20;;;;;;;;;;5050285;28;20045;-82
2021/07/29 02:21:44;;;;;;;5.05;1.88;;;;;;;;;;5050978;28;20103;-82
2021/07/29 02:24:10;;;;;;;3.65;2.25;;;;;;;;;;5050566;28;20049;-82
2021/07/29 02:26:37;;;;;;;2.03;1.75;;;;;;;;;;5054403;28;20417;-81
2021/07/29 02:29:05;;;;;;;6.30;2.95;;;;;;;;;;5054303;28;20087;-82
2021/07/29 02:31:31;;;;;;;4.38;2.45;;;;;;;;;;5054128;28;20045;-82
2021/07/29 02:33:58;;;;;;;3.08;2.28;;;;;;;;;;5054279;28;20199;-81
2021/07/29 02:36:24;;;;;;;6.78;2.63;;;;;;;;;;5054346;28;20049;-81
2021/07/29 02:38:51;;;;;;;2.45;1.45;;;;;;;;;;5054113;28;20080;-81
2021/07/29 02:41:19;;;;;;;8.70;3.53;;;;;;;;;;5053986;28;20464;-82
2021/07/29 02:43:45;;;;;;;4.00;1.30;;;;;;;;;;5054008;28;20489;-81
2021/07/29 02:46:13;;;;;;;6.60;3.40;;;;;;;;;;5053604;28;20064;-81
2021/07/29 02:48:39;;;;;;;9.60;3.22;;;;;;;;;;5053877;28;20087;-82
2021/07/29 02:51:06;;;;;;;3.85;2.35;;;;;;;;;;5053674;28;20045;-82
2021/07/29 02:53:34;;;;;;;4.63;1.85;;;;;;;;;;5053765;28;20048;-81
2021/07/29 02:56:01;;;;;;;3.35;1.70;;;;;;;;;;5053822;28;20083;-82
2021/07/29 02:58:29;;;;;;;4.05;1.88;;;;;;;;;;5053741;28;20060;-82
2021/07/29 03:00:55;;;;;;;2.83;2.15;;;;;;;;;;5054123;28;20053;-81
2021/07/29 03:03:23;;;;;;;3.30;1.98;;;;;;;;;;5053506;28;20105;-82
2021/07/29 03:05:50;;;;;;;4.70;2.55;;;;;;;;;;5053755;28;20179;-81
2021/07/29 03:08:16;;;;;;;6.75;2.47;;;;;;;;;;5053603;28;20378;-82
2021/07/29 03:10:45;;;;;;;5.40;2.30;;;;;;;;;;5053903;28;20135;-82
2021/07/29 03:13:11;;;;;;;5.30;3.10;;;;;;;;;;5053569;28;20451;-82
2021/07/29 03:15:38;;;;;;;3.90;2.05;;;;;;;;;;5053728;28;20099;-82
2021/07/29 03:18:05;;;;;;;3.53;2.05;;;;;;;;;;5053316;28;20045;-82
2021/07/29 03:20:32;;;;;;;4.63;2.78;;;;;;;;;;5053312;28;20049;-82
2021/07/29 03:22:59;;;;;;;5.85;3.17;;;;;;;;;;5053251;28;20048;-81
2021/07/29 03:25:25;;;;;;;3.55;1.70;;;;;;;;;;5053150;28;20045;-82
2021/07/29 03:27:52;;;;;;;3.30;1.88;;;;;;;;;;5053043;28;20057;-81
2021/07/29 03:30:18;;;;;;;6.85;2.90;;;;;;;;;;5053192;28;20057;-82
2021/07/29 03:32:45;;;;;;;3.30;2.45;;;;;;;;;;5053072;28;20080;-81
2021/07/29 03:35:11;;;;;;;3.28;1.88;;;;;;;;;;5052161;28;20045;-82
2021/07/29 03:37:39;;;;;;;3.38;2.17;;;;;;;;;;5053087;28;20049;-82
2021/07/29 03:40:07;;;;;;;7.40;2.58;;;;;;;;;;5052933;28;20057;-82
2021/07/29 03:42:34;;;;;;;4.22;2.22;;;;;;;;;;5052723;28;20489;-81
2021/07/29 03:45:01;;;;;;;7.35;2.20;;;;;;;;;;5052848;28;20074;-82
2021/07/29 03:47:27;;;;;;;3.33;2.25;;;;;;;;;;5053156;28;20103;-82
2021/07/29 03:49:54;;;;;;;6.93;3.35;;;;;;;;;;5052814;28;20463;-81
2021/07/29 03:52:21;;;;;;;5.95;2.35;;;;;;;;;;5052671;28;20066;-81
2021/07/29 03:54:51;;;;;;;3.75;2.03;;;;;;;;;;5052554;28;20041;-81
2021/07/29 03:57:18;;;;;;;4.95;3.15;;;;;;;;;;5052843;28;20492;-82
2021/07/29 03:59:44;;;;;;;10.32;3.58;;;;;;;;;;5052728;28;20067;-82
2021/07/29 04:02:11;;;;;;;3.00;1.90;;;;;;;;;;5052977;28;20072;-82
2021/07/29 04:04:38;;;;;;;5.68;3.10;;;;;;;;;;5052515;28;20059;-82
2021/07/29 04:07:05;;;;;;;4.45;2.95;;;;;;;;;;5052471;28;20135;-81
2021/07/29 04:09:31;;;;;;;2.90;2.42;;;;;;;;;;5052320;28;20048;-82
2021/07/29 04:11:59;;;;;;;5.05;3.42;;;;;;;;;;5052334;28;20057;-82
2021/07/29 04:14:26;;;;;;;5.05;2.00;;;;;;;;;;5052314;28;20634;-82
2021/07/29 04:16:52;;;;;;;4.70;3.17;;;;;;;;;;5052343;28;20110;-82
2021/07/29 04:19:19;;;;;;;7.90;2.45;;;;;;;;;;5052071;28;20683;-82
2021/07/29 04:21:45;;;;;;;2.30;1.73;;;;;;;;;;5052069;28;20056;-82
2021/07/29 04:24:12;;;;;;;5.32;2.67;;;;;;;;;;5051954;28;20102;-81
2021/07/29 04:26:40;;;;;;;3.10;2.58;;;;;;;;;;5052236;28;20048;-81
2021/07/29 04:29:08;;;;;;;2.70;1.88;;;;;;;;;;5052106;28;20053;-81
2021/07/29 04:31:34;;;;;;;3.55;2.83;;;;;;;;;;5052113;28;20057;-82
2021/07/29 04:34:01;;;;;;;2.88;1.70;;;;;;;;;;5052512;28;20041;-82
2021/07/29 04:36:27;;;;;;;4.90;3.40;;;;;;;;;;5051760;28;20497;-82
2021/07/29 04:38:54;;;;;;;6.30;2.58;;;;;;;;;;5051693;28;20044;-82
2021/07/29 04:41:20;;;;;;;4.20;2.67;;;;;;;;;;5051813;28;20045;-81
2021/07/29 04:43:47;;;;;;;3.17;2.35;;;;;;;;;;5051694;28;20554;-81
2021/07/29 04:46:15;;;;;;;8.60;3.00;;;;;;;;;;5040157;28;20061;-81
2021/07/29 04:48:41;;;;;;;7.55;2.55;;;;;;;;;;5031864;28;20053;-82
2021/07/29 04:51:08;;;;;;;6.13;2.60;;;;;;;;;;5031535;28;20494;-81
2021/07/29 04:53:34;;;;;;;3.97;2.67;;;;;;;;;;5031480;28;20061;-82
2021/07/29 04:56:02;;;;;;;6.70;2.28;;;;;;;;;;5031756;28;20123;-83
2021/07/29 04:58:29;;;;;;;12.23;2.50;;;;;;;;;;5031528;28;20100;-82
2021/07/29 05:00:55;;;;;;;6.10;3.35;;;;;;;;;;5031484;28;20053;-81
2021/07/29 05:03:23;;;;;;;3.33;2.35;;;;;;;;;;5031443;28;20129;-81
2021/07/29 05:05:50;;;;;;;7.43;2.17;;;;;;;;;;5031294;28;20053;-82
2021/07/29 05:08:16;;;;;;;3.00;2.20;;;;;;;;;;5031322;28;20053;-81
2021/07/29 05:10:43;;;;;;;4.93;2.65;;;;;;;;;;5031642;28;20053;-82
2021/07/29 05:13:09;;;;;;;9.68;3.53;;;;;;;;;;5031301;28;20049;-82
2021/07/29 05:15:36;;;;;;;5.93;1.75;;;;;;;;;;5031202;28;20045;-82
2021/07/29 05:18:03;;;;;;;2.42;2.03;;;;;;;;;;5031081;28;20057;-81
2021/07/29 05:20:31;;;;;;;4.70;2.90;;;;;;;;;;5031091;28;20092;-81
2021/07/29 05:22:57;;;;;;;8.23;4.57;;;;;;;;;;5031013;28;20056;-81
2021/07/29 05:25:24;;;;;;;4.47;2.75;;;;;;;;;;5030799;28;20092;-81
2021/07/29 05:27:50;;;;;;;8.55;5.97;;;;;;;;;;5031131;28;20054;-81
2021/07/29 05:30:17;;;;;;;11.05;3.08;;;;;;;;;;5030900;28;20046;-80
2021/07/29 05:32:44;;;;;;;7.40;3.53;;;;;;;;;;5030776;28;20057;-81
2021/07/29 05:35:10;;;;;;;9.40;4.95;;;;;;;;;;5031174;28;20045;-81
2021/07/29 05:37:38;;;;;;;7.10;3.08;;;;;;;;;;5031131;28;20096;-81
2021/07/29 05:40:06;;;;;;;3.55;2.75;;;;;;;;;;5030804;28;20493;-81
2021/07/29 05:42:32;;;;;;;9.40;3.88;;;;;;;;;;5030874;28;20053;-81
2021/07/29 05:44:59;;;;;;;14.50;4.70;;;;;;;;;;5030894;28;20050;-81
2021/07/29 05:47:25;;;;;;;7.43;3.25;;;;;;;;;;5049524;28;20512;-81
2021/07/29 05:49:52;;;;;;;5.32;3.67;;;;;;;;;;5050744;28;20040;-81
2021/07/29 05:52:18;;;;;;;4.82;3.50;;;;;;;;;;5050610;28;20413;-81
2021/07/29 05:54:46;;;;;;;5.03;2.38;;;;;;;;;;5050579;28;20044;-81
2021/07/29 05:57:13;;;;;;;5.05;3.38;;;;;;;;;;5050085;28;20048;-82
2021/07/29 05:59:39;;;;;;;7.55;4.15;;;;;;;;;;5050622;28;20493;-78
2021/07/29 06:02:06;;;;;;;4.43;3.25;;;;;;;;;;5050551;28;20398;-81
2021/07/29 06:04:33;;;;;;;7.32;3.35;;;;;;;;;;5050482;28;20045;-81
2021/07/29 06:07:00;;;;;;;4.60;3.70;;;;;;;;;;5050485;28;20103;-81
2021/07/29 06:09:26;;;;;;;9.98;2.47;;;;;;;;;;5050376;28;20045;-81
2021/07/29 06:11:54;;;;;;;22.92;4.80;;;;;;;;;;5050317;28;20091;-81
2021/07/29 06:14:21;;;;;;;7.90;3.80;;;;;;;;;;5050309;28;20053;-81
2021/07/29 06:16:47;;;;;;;11.70;4.93;;;;;;;;;;5050275;28;20041;-79
2021/07/29 06:19:17;;;;;;;6.13;4.03;;;;;;;;;;5050570;28;20095;-80
2021/07/29 06:21:44;;;;;;;8.57;6.07;;;;;;;;;;5050354;28;20040;-81
2021/07/29 06:24:10;;;;;;;20.20;6.45;;;;;;;;;;5050438;28;20115;-81
2021/07/29 06:26:38;;;;;;;14.50;5.60;;;;;;;;;;5050359;28;20056;-81
2021/07/29 06:29:06;;;;;;;4.50;3.80;;;;;;;;;;5050174;28;20045;-81
2021/07/29 06:31:33;;;;;;;14.20;5.75;;;;;;;;;;5050378;28;20395;-81
2021/07/29 06:34:00;;;;;;;12.57;6.28;;;;;;;;;;5050399;28;20049;-81
2021/07/29 06:36:26;;;;;;;6.28;4.40;;;;;;;;;;5049994;28;20091;-81
2021/07/29 06:38:53;;;;;;;6.22;3.53;;;;;;;;;;5050213;28;20056;-80
2021/07/29 06:41:20;;;;;;;8.88;3.42;;;;;;;;;;5050210;28;20099;-80
2021/07/29 06:43:46;;;;;;;21.75;5.07;;;;;;;;;;5050063;28;20045;-81
2021/07/29 06:46:14;;;;;;;7.50;4.85;;;;;;;;;;5050242;28;20057;-81
2021/07/29 06:48:41;;;;;;;12.52;4.57;;;;;;;;;;5050107;28;20045;-81
2021/07/29 06:51:08;;;;;;;29.92;6.10;;;;;;;;;;5050186;28;20111;-81
2021/07/29 06:53:35;;;;;;;9.65;3.10;;;;;;;;;;5050012;28;20048;-81
2021/07/29 06:56:02;;;;;;;6.78;3.63;;;;;;;;;;5049946;28;20216;-80
2021/07/29 06:58:29;;;;;;;5.00;3.05;;;;;;;;;;5049951;28;20049;-81
2021/07/29 07:00:55;;;;;;;6.68;4.18;;;;;;;;;;5049996;28;20076;-81
2021/07/29 07:03:24;;;;;;;14.38;5.45;;;;;;;;;;5050186;28;20115;-80
2021/07/29 07:05:51;;;;;;;11.18;4.00;;;;;;;;;;5050069;28;20139;-80
2021/07/29 07:08:17;;;;;;;11.05;4.78;;;;;;;;;;5049946;28;20055;-81
2021/07/29 07:10:44;;;;;;;9.68;3.63;;;;;;;;;;5053285;28;20049;-81
2021/07/29 07:13:10;;;;;;;8.52;3.83;;;;;;;;;;5053356;28;20508;-81
2021/07/29 07:15:37;;;;;;;8.52;3.47;;;;;;;;;;5053654;28;20045;-81
2021/07/29 07:18:03;;;;;;;10.18;4.60;;;;;;;;;;5053370;28;20061;-81
2021/07/29 07:20:31;;;;;;;8.90;4.38;;;;;;;;;;5053402;28;20048;-81
2021/07/29 07:22:58;;;;;;;13.98;4.47;;;;;;;;;;5053428;28;20049;-82
2021/07/29 07:25:24;;;;;;;20.27;3.47;;;;;;;;;;5053104;28;20052;-81
2021/07/29 07:27:51;;;;;;;8.10;4.45;;;;;;;;;;5052761;28;20485;-83
2021/07/29 07:30:17;;;;;;;12.10;3.33;;;;;;;;;;5053297;28;20059;-81
2021/07/29 07:32:44;;;;;;;6.70;3.85;;;;;;;;;;5052596;28;20064;-81
2021/07/29 07:35:11;;;;;;;13.13;4.30;;;;;;;;;;5053007;28;20485;-82
2021/07/29 07:37:42;;;;;;;6.00;2.75;;;;;;;;;;5051005;28;20095;-81
2021/07/29 07:40:09;;;;;;;6.28;2.17;;;;;;;;;;5052960;28;20044;-81
2021/07/29 07:42:35;;;;;;;24.70;4.82;;;;;;;;;;5053171;28;20056;-81
2021/07/29 07:45:02;;;;;;;5.55;3.95;;;;;;;;;;5053034;28;20052;-81
2021/07/29 07:47:29;;;;;;;6.35;4.05;;;;;;;;;;5052861;28;20060;-81
2021/07/29 07:49:55;;;;;;;9.00;3.92;;;;;;;;;;5052823;28;20141;-81
2021/07/29 07:52:22;;;;;;;6.95;4.10;;;;;;;;;;5052587;28;20076;-79
2021/07/29 07:54:50;;;;;;;6.70;3.40;;;;;;;;;;5052976;28;20386;-79
2021/07/29 07:57:16;;;;;;;6.63;3.42;;;;;;;;;;5052859;28;20099;-79
2021/07/29 07:59:43;;;;;;;7.72;3.78;;;;;;;;;;5052584;28;20045;-79
2021/07/29 08:02:09;;;;;;;4.57;2.65;;;;;;;;;;5052619;28;20049;-78
2021/07/29 08:04:36;;;;;;;8.82;3.65;;;;;;;;;;5052495;28;20100;-78
2021/07/29 08:07:03;;;;;;;9.25;3.28;;;;;;;;;;5052279;28;20433;-80
2021/07/29 08:09:29;;;;;;;5.07;2.08;;;;;;;;;;5052381;28;20048;-81
2021/07/29 08:11:57;;;;;;;5.35;2.88;;;;;;;;;;5052515;28;20065;-82
2021/07/29 08:14:24;;;;;;;5.63;2.72;;;;;;;;;;5052392;28;20050;-81
2021/07/29 08:16:50;;;;;;;28.17;2.78;;;;;;;;;;5052260;28;20057;-77
2021/07/29 08:19:17;;;;;;;5.13;3.05;;;;;;;;;;5051905;28;20041;-78
2021/07/29 08:21:43;;;;;;;5.07;3.13;;;;;;;;;;5052002;28;20052;-79
2021/07/29 08:24:11;;;;;;;8.25;2.63;;;;;;;;;;5052340;28;20049;-79
2021/07/29 08:26:37;;;;;;;2.63;1.40;;;;;;;;;;5052035;28;20045;-77
2021/07/29 08:29:05;;;;;;;4.82;2.03;;;;;;;;;;5052078;28;20053;-78
2021/07/29 08:31:32;;;;;;;7.90;2.70;;;;;;;;;;5051935;28;20041;-79
2021/07/29 08:33:58;;;;;;;6.78;2.08;;;;;;;;;;5052011;28;20111;-78
2021/07/29 08:36:24;;;;;;;8.57;2.13;;;;;;;;;;5051790;28;20099;-79
2021/07/29 08:38:51;;;;;;;8.80;3.50;;;;;;;;;;5051902;28;20512;-79
2021/07/29 08:41:18;;;;;;;11.88;2.70;;;;;;;;;;5051778;28;20513;-79
2021/07/29 08:43:45;;;;;;;8.63;4.22;;;;;;;;;;5051844;28;20049;-79
2021/07/29 08:46:17;;;;;;;6.53;2.60;;;;;;;;;;5051875;28;20103;-79
2021/07/29 08:48:44;;;;;;;4.10;1.77;;;;;;;;;;5051612;28;20049;-79
2021/07/29 08:51:11;;;;;;;2.50;1.10;;;;;;;;;;5051686;28;20060;-78
2021/07/29 08:53:37;;;;;;;6.28;2.28;;;;;;;;;;5051719;28;20099;-78
2021/07/29 08:56:04;;;;;;;4.25;1.88;;;;;;;;;;5051577;28;20053;-79
2021/07/29 08:58:31;;;;;;;4.50;2.85;;;;;;;;;;5051509;28;20049;-78
2021/07/29 09:01:01;;;;;;;4.05;1.90;;;;;;;;;;5051506;28;20056;-80
2021/07/29 09:03:29;;;;;;;6.80;2.40;;;;;;;;;;5051332;28;20511;-79
2021/07/29 09:06:02;;;;;;;3.83;2.38;;;;;;;;;;5051625;28;20045;-80
2021/07/29 09:08:29;;;;;;;7.47;2.20;;;;;;;;;;5051403;28;20056;-79
2021/07/29 09:10:55;;;;;;;5.45;2.08;;;;;;;;;;5051310;28;20389;-79
2021/07/29 09:13:22;;;;;;;4.68;1.60;;;;;;;;;;5051125;28;20053;-79
2021/07/29 09:16:08;;;;;;;8.93;2.85;;;;;;;;;;5025920;28;20059;-80
2021/07/29 09:18:36;;;;;;;6.07;2.25;;;;;;;;;;5048417;28;20115;-80
2021/07/29 09:21:11;;;;;;;3.08;1.77;;;;;;;;;;5051000;28;20063;-80
2021/07/29 09:23:37;;;;;;;5.80;2.25;;;;;;;;;;5051301;28;20052;-79
2021/07/29 09:26:04;;;;;;;4.90;2.28;;;;;;;;;;5051046;28;20102;-80
2021/07/29 09:28:34;;;;;;;5.85;1.55;;;;;;;;;;5050898;28;20058;-79
2021/07/29 09:31:15;;;;;;;11.95;2.75;;;;;;;;;;5050148;28;20045;-77
2021/07/29 09:33:55;;;;;;;8.30;1.83;;;;;;;;;;5050173;28;20501;-77
2021/07/29 09:36:22;;;;;;;3.20;1.10;;;;;;;;;;5048549;28;20057;-77
2021/07/29 09:38:48;;;;;;;2.55;1.15;;;;;;;;;;5050081;28;20119;-77
2021/07/29 09:41:23;;;;;;;3.35;1.77;;;;;;;;;;5050486;28;20107;-79
2021/07/29 09:43:50;;;;;;;;;;;;;;;;;;5050486;28;20049;-78
2021/07/29 09:46:18;;;;;;;4.57;1.38;;;;;;;;;;5050425;28;19974;-80
2021/07/29 09:48:44;;;;;;;6.65;2.03;;;;;;;;;;5050167;28;20068;-80
2021/07/29 09:51:13;;;;;;;6.57;2.38;;;;;;;;;;5049960;28;20103;-77
2021/07/29 09:53:39;;;;;;;9.45;3.03;;;;;;;;;;5049996;28;20049;-80
2021/07/29 09:56:08;;;;;;;10.13;2.28;;;;;;;;;;5049870;28;20067;-80
2021/07/29 09:58:35;;;;;;;6.28;3.08;;;;;;;;;;5050395;28;20135;-79
2021/07/29 10:01:02;;;;;;;3.40;1.17;;;;;;;;;;5050647;28;20049;-79
2021/07/29 10:03:29;;;;;;;4.15;1.77;;;;;;;;;;5049467;28;20405;-78
2021/07/29 10:05:59;;;;;;;6.85;2.13;;;;;;;;;;5047681;28;20481;-81
2021/07/29 10:08:30;;;;;;;2.75;0.77;;;;;;;;;;5050567;28;20057;-79
2021/07/29 10:10:58;;;;;;;8.07;3.70;;;;;;;;;;5050184;28;20440;-78
2021/07/29 10:13:34;;;;;;;5.15;2.13;;;;;;;;;;5050447;28;20099;-80
2021/07/29 10:16:01;;;;;;;9.88;2.17;;;;;;;;;;5050394;28;20049;-81
2021/07/29 10:18:48;;;;;;;3.42;2.30;;;;;;;;;;5047228;28;20044;-80
2021/07/29 10:21:24;;;;;;;6.50;2.28;;;;;;;;;;5050526;28;20060;-77
2021/07/29 10:23:56;;;;;;;4.30;0.88;;;;;;;;;;5050377;28;20059;-79
2021/07/29 10:26:23;;;;;;;6.38;1.98;;;;;;;;;;5050326;28;20053;-82
2021/07/29 10:28:49;;;;;;;4.43;1.52;;;;;;;;;;5050684;28;20504;-86
2021/07/29 10:31:17;;;;;;;1.63;0.80;;;;;;;;;;5050717;28;20049;-80
2021/07/29 10:33:43;;;;;;;4.60;2.83;;;;;;;;;;5050253;28;20830;-78
2021/07/29 10:36:25;;;;;;;11.35;2.25;;;;;;;;;;5050359;28;20049;-78
2021/07/29 10:38:52;;;;;;;6.10;2.20;;;;;;;;;;5050029;28;20053;-79
2021/07/29 10:41:37;;;;;;;6.43;1.83;;;;;;;;;;5050004;28;20049;-80
2021/07/29 10:44:07;;;;;;;3.88;1.60;;;;;;;;;;5052868;28;20416;-79
2021/07/29 10:46:48;;;;;;;5.53;2.03;;;;;;;;;;5053897;28;20063;-81
2021/07/29 10:49:16;;;;;;;5.18;2.10;;;;;;;;;;5053743;28;20836;-81
2021/07/29 10:52:03;;;;;;;2.03;1.42;;;;;;;;;;5053734;28;20073;-79
2021/07/29 10:54:30;;;;;;;4.38;2.63;;;;;;;;;;5053663;28;20049;-79
2021/07/29 10:56:57;;;;;;;4.75;1.75;;;;;;;;;;5053972;28;20052;-81
2021/07/29 10:59:25;;;;;;;9.35;2.67;;;;;;;;;;5053762;28;20049;-80
2021/07/29 11:01:52;;;;;;;3.45;1.90;;;;;;;;;;5053670;28;20099;-78
2021/07/29 11:04:19;;;;;;;6.68;1.95;;;;;;;;;;5053586;28;20048;-80
2021/07/29 11:06:58;;;;;;;5.65;0.82;;;;;;;;;;5053566;28;20049;-81
2021/07/29 11:09:28;;;;;;;8.35;3.00;;;;;;;;;;5053690;28;20057;-79
2021/07/29 11:11:55;;;;;;;5.07;2.28;;;;;;;;;;5053721;28;20056;-81
2021/07/29 11:14:24;;;;;;;7.85;1.67;;;;;;;;;;5053386;28;20159;-80
2021/07/29 11:16:52;;;;;;;7.18;2.33;;;;;;;;;;5053656;28;20060;-79
2021/07/29 11:19:19;;;;;;;3.83;1.98;;;;;;;;;;5053520;28;20103;-80
2021/07/29 11:21:45;;;;;;;2.78;1.35;;;;;;;;;;5053248;28;20045;-79
2021/07/29 11:24:23;;;;;;;6.15;2.85;;;;;;;;;;5053270;28;20049;-80
2021/07/29 11:26:50;;;;;;;4.97;2.60;;;;;;;;;;5053184;28;20044;-80
2021/07/29 11:29:17;;;;;;;2.88;1.52;;;;;;;;;;5053059;28;20056;-79
2021/07/29 11:31:43;;;;;;;5.55;1.90;;;;;;;;;;5053295;28;20045;-78
2021/07/29 11:34:11;;;;;;;5.03;1.50;;;;;;;;;;5053081;28;20053;-80
2021/07/29 11:36:38;;;;;;;3.20;1.67;;;;;;;;;;5053073;28;20049;-80
2021/07/29 11:39:05;;;;;;;2.20;1.20;;;;;;;;;;5053034;28;20099;-80
2021/07/29 11:41:32;;;;;;;17.65;2.10;;;;;;;;;;5052878;28;20049;-79
2021/07/29 11:44:00;;;;;;;1.83;1.35;;;;;;;;;;5053346;28;20053;-79
2021/07/29 11:46:27;;;;;;;3.40;1.42;;;;;;;;;;5052919;28;20063;-80
2021/07/29 11:49:03;;;;;;;7.53;2.28;;;;;;;;;;5052923;28;20041;-79
2021/07/29 11:51:31;;;;;;;4.57;1.30;;;;;;;;;;5052764;28;20489;-79
2021/07/29 11:53:58;;;;;;;5.28;1.85;;;;;;;;;;5052277;28;20432;-81
2021/07/29 11:56:24;;;;;;;7.10;1.92;;;;;;;;;;5052025;28;20049;-79
2021/07/29 11:58:57;;;;;;;12.10;1.90;;;;;;;;;;5052632;28;20045;-79
2021/07/29 12:01:24;;;;;;;5.50;1.55;;;;;;;;;;5052295;28;20455;-79
2021/07/29 12:03:51;;;;;;;5.78;3.13;;;;;;;;;;5060170;28;20420;-77
2021/07/29 12:06:18;;;;;;;5.25;1.70;;;;;;;;;;5067047;28;20053;-77
2021/07/29 12:08:47;;;;;;;4.55;1.70;;;;;;;;;;5071109;28;20060;-79
2021/07/29 12:11:14;;;;;;;5.32;1.65;;;;;;;;;;5061343;28;20095;-77
2021/07/29 12:13:41;;;;;;;5.30;1.63;;;;;;;;;;5052226;28;20069;-78
2021/07/29 12:16:08;;;;;;;10.90;2.00;;;;;;;;;;5052120;28;20056;-78
2021/07/29 12:18:34;;;;;;;7.60;1.98;;;;;;;;;;5052206;28;20497;-79
2021/07/29 12:21:01;;;;;;;5.43;1.98;;;;;;;;;;5052127;28;20099;-78
2021/07/29 12:23:28;;;;;;;2.00;1.15;;;;;;;;;;5052112;28;20166;-78
2021/07/29 12:25:57;;;;;;;2.35;1.02;;;;;;;;;;5052121;28;20071;-79
2021/07/29 12:28:48;;;;;;;6.10;1.48;;;;;;;;;;5052216;28;20131;-80
2021/07/29 12:31:18;;;;;;;2.30;1.63;;;;;;;;;;5036674;28;20045;-80
2021/07/29 12:33:48;;;;;;;3.22;1.52;;;;;;;;;;5051719;28;20050;-78
2021/07/29 12:39:37;;;;;;;5.00;2.50;;;;;;;;;;5148925;27;20339;-88
2021/07/29 12:42:21;;;;;;;11.20;4.15;;;;;;;;;;5148881;27;20043;-90
2021/07/29 12:44:54;;;;;;;8.57;1.30;;;;;;;;;;5149106;27;20116;-89
2021/07/29 12:47:21;;;;;;;7.45;1.25;;;;;;;;;;5149047;27;20043;-89
2021/07/29 12:49:48;;;;;;;3.88;1.00;;;;;;;;;;5147983;27;20050;-90
2021/07/29 12:52:18;;;;;;;10.25;1.85;;;;;;;;;;5132663;27;20043;-89
2021/07/29 12:55:00;;;;;;;2.42;1.00;;;;;;;;;;5127557;28;20051;-89
2021/07/29 12:57:28;;;;;;;3.70;1.73;;;;;;;;;;5127032;28;20047;-89
2021/07/29 12:59:54;;;;;;;3.78;1.02;;;;;;;;;;5141198;27;20074;-89
2021/07/29 13:02:21;;;;;;;3.33;1.40;;;;;;;;;;5147509;27;20054;-89
2021/07/29 13:05:07;;;;;;;4.95;2.25;;;;;;;;;;5147565;27;20508;-88
2021/07/29 13:07:33;;;;;;;5.85;1.92;;;;;;;;;;5148305;27;20123;-86
2021/07/29 13:10:01;;;;;;;2.78;1.15;;;;;;;;;;5148660;27;20047;-91
2021/07/29 13:12:28;;;;;;;3.97;1.85;;;;;;;;;;5148096;27;20099;-91
2021/07/29 13:14:55;;;;;;;4.72;2.17;;;;;;;;;;5147624;27;20043;-90
2021/07/29 13:17:23;;;;;;;2.40;1.33;;;;;;;;;;5138194;27;20042;-90
2021/07/29 13:19:50;;;;;;;4.10;1.48;;;;;;;;;;5124801;27;20078;-88
2021/07/29 13:22:16;;;;;;;2.35;1.45;;;;;;;;;;5124088;27;20051;-91
2021/07/29 13:24:43;;;;;;;4.97;1.98;;;;;;;;;;5125888;27;20043;-89
2021/07/29 13:27:24;;;;;;;3.08;1.70;;;;;;;;;;5126784;27;20055;-92
2021/07/29 13:29:52;;;;;;;3.00;1.65;;;;;;;;;;5125316;27;20047;-91
2021/07/29 13:32:19;;;;;;;3.00;1.05;;;;;;;;;;5126117;27;20043;-89
2021/07/29 13:34:46;;;;;;;6.57;2.30;;;;;;;;;;5106002;28;20043;-90
2021/07/29 13:37:12;;;;;;;3.25;1.48;;;;;;;;;;5106034;28;20044;-89
2021/07/29 13:39:39;;;;;;;3.05;1.35;;;;;;;;;;5109295;27;20043;-89
2021/07/29 13:42:06;;;;;;;3.40;1.60;;;;;;;;;;5124967;27;20130;-90
2021/07/29 13:44:34;;;;;;;7.72;3.03;;;;;;;;;;5125385;27;20051;-88
2021/07/29 13:47:02;;;;;;;6.53;1.67;;;;;;;;;;5133909;27;20062;-88
2021/07/29 13:49:28;;;;;;;2.55;1.40;;;;;;;;;;5100637;28;20040;-89
2021/07/29 13:51:55;;;;;;;2.40;0.85;;;;;;;;;;5092412;28;20170;-88
2021/07/29 13:54:22;;;;;;;2.83;1.33;;;;;;;;;;5111209;28;20077;-89
2021/07/29 13:56:48;;;;;;;9.05;2.40;;;;;;;;;;5112427;28;20047;-89
2021/07/29 14:05:00;;;;;;;5.22;2.33;;;;;;;;;;5091540;28;20058;-91
2021/07/29 14:07:42;;;;;;;2.45;1.25;;;;;;;;;;5093662;28;20063;-91
2021/07/29 14:15:42;;;;;;;5.22;1.50;;;;;;;;;;5092199;28;20121;-91
2021/07/29 14:18:24;;;;;;;6.60;3.03;;;;;;;;;;5092495;28;20052;-89
2021/07/29 14:21:07;;;;;;;2.60;1.20;;;;;;;;;;5092137;28;20068;-90
2021/07/29 14:23:38;;;;;;;2.10;0.88;;;;;;;;;;5092140;28;20043;-88
2021/07/29 14:26:24;;;;;;;3.53;1.63;;;;;;;;;;5092212;28;20055;-86
2021/07/29 14:28:58;;;;;;;1.88;0.80;;;;;;;;;;5092528;28;20475;-91
2021/07/29 14:31:30;;;;;;;4.68;1.60;;;;;;;;;;5092872;28;20475;-88
2021/07/29 14:34:01;;;;;;;5.80;2.53;;;;;;;;;;5092950;27;20506;-89
2021/07/29 14:42:00;;;;;;;3.00;1.45;;;;;;;;;;5131751;27;20047;-86
2021/07/29 14:44:50;;;;;;;2.30;1.35;;;;;;;;;;5133447;27;20059;-86
2021/07/29 14:50:02;;;;;;;5.50;1.55;;;;;;;;;;5132609;27;20103;-87
2021/07/29 14:52:30;;;;;;;3.13;1.65;;;;;;;;;;5132814;27;20043;-89
2021/07/29 14:55:04;;;;;;;3.50;1.67;;;;;;;;;;5132617;27;20066;-87
2021/07/29 14:57:50;;;;;;;5.07;2.60;;;;;;;;;;5132343;27;20047;-85
2021/07/29 15:21:46;;;;;;;2.70;1.40;;;;;;;;;;5132373;27;20351;-87
2021/07/29 16:09:12;;;;;;;9.10;2.27;;;;;;;;;;5109924;28;20103;-86
2021/07/29 16:11:41;;;;;;;3.03;1.23;;;;;;;;;;5110015;28;20051;-86
2021/07/29 16:14:09;;;;;;;5.43;2.53;;;;;;;;;;5109628;28;20456;-87
2021/07/29 16:16:36;;;;;;;2.92;0.93;;;;;;;;;;5098365;28;20047;-86
2021/07/29 16:19:03;;;;;;;2.55;1.55;;;;;;;;;;5108309;28;20043;-86